Station: EBLB - 24/10/2017 10:55Z (il y a 6 minutes)
EBLB 241055Z AUTO 21007KT 9999 -DZ OVC003/// 11/11 Q1023 YLO
Vent du 210º - 7 kt
Visibilité > 10 km (faible bruine)
Ciel couvert à 300 pieds
Température: +11ºC - Point de rosée: +11ºC - QNH: 1023 hPa
Code couleur militaire: YLO (conditions IMC ou marginales)